sensor_id;sensor_type;location;lat;lon;timestamp;temperature;humidity
60033;DHT22;45905;50.570;10.428;2023-02-12T00:01:21;2.50;99.90
60033;DHT22;45905;50.570;10.428;2023-02-12T00:03:49;2.50;99.90
60033;DHT22;45905;50.570;10.428;2023-02-12T00:06:16;2.50;99.90
60033;DHT22;45905;50.570;10.428;2023-02-12T00:08:44;2.50;99.90
60033;DHT22;45905;50.570;10.428;2023-02-12T00:11:17;2.50;99.90
60033;DHT22;45905;50.570;10.428;2023-02-12T00:13:46;2.50;99.90
60033;DHT22;45905;50.570;10.428;2023-02-12T00:16:17;2.50;99.90
60033;DHT22;45905;50.570;10.428;2023-02-12T00:18:47;2.50;99.90
60033;DHT22;45905;50.570;10.428;2023-02-12T00:21:14;2.50;99.90
60033;DHT22;45905;50.570;10.428;2023-02-12T00:23:43;2.50;99.90
60033;DHT22;45905;50.570;10.428;2023-02-12T00:26:13;2.50;99.90
60033;DHT22;45905;50.570;10.428;2023-02-12T00:28:45;2.60;99.90
60033;DHT22;45905;50.570;10.428;2023-02-12T00:31:18;2.50;99.90
60033;DHT22;45905;50.570;10.428;2023-02-12T00:33:48;2.50;99.90
60033;DHT22;45905;50.570;10.428;2023-02-12T00:36:18;2.50;99.90
60033;DHT22;45905;50.570;10.428;2023-02-12T00:38:47;2.50;99.90
60033;DHT22;45905;50.570;10.428;2023-02-12T00:41:17;2.80;99.90
60033;DHT22;45905;50.570;10.428;2023-02-12T00:43:44;2.50;99.90
60033;DHT22;45905;50.570;10.428;2023-02-12T00:46:11;2.50;99.90
60033;DHT22;45905;50.570;10.428;2023-02-12T00:48:38;2.60;99.90
60033;DHT22;45905;50.570;10.428;2023-02-12T00:51:06;2.50;99.90
60033;DHT22;45905;50.570;10.428;2023-02-12T00:53:34;2.50;99.90
60033;DHT22;45905;50.570;10.428;2023-02-12T00:56:01;2.60;99.90
60033;DHT22;45905;50.570;10.428;2023-02-12T00:58:29;2.50;99.90
60033;DHT22;45905;50.570;10.428;2023-02-12T01:00:58;2.80;99.90
60033;DHT22;45905;50.570;10.428;2023-02-12T01:03:25;2.50;99.90
60033;DHT22;45905;50.570;10.428;2023-02-12T01:05:52;2.50;99.90
60033;DHT22;45905;50.570;10.428;2023-02-12T01:08:21;2.50;99.90
60033;DHT22;45905;50.570;10.428;2023-02-12T01:10:57;2.60;99.90
60033;DHT22;45905;50.570;10.428;2023-02-12T01:13:28;2.60;99.90
60033;DHT22;45905;50.570;10.428;2023-02-12T01:16:10;2.50;99.90
60033;DHT22;45905;50.570;10.428;2023-02-12T01:18:41;2.60;99.90
60033;DHT22;45905;50.570;10.428;2023-02-12T01:21:14;2.60;99.90
60033;DHT22;45905;50.570;10.428;2023-02-12T01:24:02;2.50;99.90
60033;DHT22;45905;50.570;10.428;2023-02-12T01:26:30;2.50;99.90
60033;DHT22;45905;50.570;10.428;2023-02-12T01:29:01;2.50;99.90
60033;DHT22;45905;50.570;10.428;2023-02-12T01:31:35;2.50;99.90
60033;DHT22;45905;50.570;10.428;2023-02-12T01:34:06;2.60;99.90
60033;DHT22;45905;50.570;10.428;2023-02-12T01:36:34;2.70;99.90
60033;DHT22;45905;50.570;10.428;2023-02-12T01:39:03;2.50;99.90
60033;DHT22;45905;50.570;10.428;2023-02-12T01:41:39;2.60;99.90
60033;DHT22;45905;50.570;10.428;2023-02-12T01:44:18;2.50;99.90
60033;DHT22;45905;50.570;10.428;2023-02-12T01:46:59;2.60;99.90
60033;DHT22;45905;50.570;10.428;2023-02-12T01:49:32;2.50;99.90
60033;DHT22;45905;50.570;10.428;2023-02-12T01:52:08;2.50;99.90
60033;DHT22;45905;50.570;10.428;2023-02-12T01:54:36;2.60;99.90
60033;DHT22;45905;50.570;10.428;2023-02-12T01:57:05;2.60;99.90
60033;DHT22;45905;50.570;10.428;2023-02-12T01:59:36;2.50;99.90
60033;DHT22;45905;50.570;10.428;2023-02-12T02:02:05;2.50;99.90
60033;DHT22;45905;50.570;10.428;2023-02-12T02:04:42;2.50;99.90
60033;DHT22;45905;50.570;10.428;2023-02-12T02:07:13;2.50;99.90
60033;DHT22;45905;50.570;10.428;2023-02-12T02:09:40;2.90;99.90
60033;DHT22;45905;50.570;10.428;2023-02-12T02:12:09;2.50;99.90
60033;DHT22;45905;50.570;10.428;2023-02-12T02:14:58;2.50;99.90
60033;DHT22;45905;50.570;10.428;2023-02-12T02:29:29;2.60;99.90
60033;DHT22;45905;50.570;10.428;2023-02-12T02:32:18;2.60;99.90
60033;DHT22;45905;50.570;10.428;2023-02-12T02:35:03;2.60;99.90
60033;DHT22;45905;50.570;10.428;2023-02-12T02:37:48;2.60;99.90
60033;DHT22;45905;50.570;10.428;2023-02-12T02:40:25;2.60;99.90
60033;DHT22;45905;50.570;10.428;2023-02-12T02:43:14;2.60;99.90
60033;DHT22;45905;50.570;10.428;2023-02-12T02:45:51;2.60;99.90
60033;DHT22;45905;50.570;10.428;2023-02-12T02:48:28;2.70;99.90
60033;DHT22;45905;50.570;10.428;2023-02-12T02:51:10;2.60;99.90
60033;DHT22;45905;50.570;10.428;2023-02-12T02:53:50;2.60;99.90
60033;DHT22;45905;50.570;10.428;2023-02-12T02:56:23;2.60;99.90
60033;DHT22;45905;50.570;10.428;2023-02-12T02:58:55;2.60;99.90
60033;DHT22;45905;50.570;10.428;2023-02-12T03:01:33;2.60;99.90
60033;DHT22;45905;50.570;10.428;2023-02-12T03:04:09;2.50;99.90
60033;DHT22;45905;50.570;10.428;2023-02-12T03:06:53;2.50;99.90
60033;DHT22;45905;50.570;10.428;2023-02-12T03:09:33;2.50;99.90
60033;DHT22;45905;50.570;10.428;2023-02-12T03:12:17;2.60;99.90
60033;DHT22;45905;50.570;10.428;2023-02-12T03:14:53;2.50;99.90
60033;DHT22;45905;50.570;10.428;2023-02-12T03:17:36;2.50;99.90
60033;DHT22;45905;50.570;10.428;2023-02-12T03:20:21;2.50;99.90
60033;DHT22;45905;50.570;10.428;2023-02-12T03:23:03;2.50;99.90
60033;DHT22;45905;50.570;10.428;2023-02-12T03:25:37;2.50;99.90
60033;DHT22;45905;50.570;10.428;2023-02-12T03:28:31;2.60;99.90
60033;DHT22;45905;50.570;10.428;2023-02-12T03:31:18;2.50;99.90
60033;DHT22;45905;50.570;10.428;2023-02-12T03:34:07;2.60;99.90
60033;DHT22;45905;50.570;10.428;2023-02-12T03:53:08;2.60;99.90
60033;DHT22;45905;50.570;10.428;2023-02-12T03:55:37;2.60;99.90
60033;DHT22;45905;50.570;10.428;2023-02-12T03:58:10;2.60;99.90
60033;DHT22;45905;50.570;10.428;2023-02-12T04:00:42;2.60;99.90
60033;DHT22;45905;50.570;10.428;2023-02-12T04:03:10;2.60;99.90
60033;DHT22;45905;50.570;10.428;2023-02-12T04:05:38;2.60;99.90
60033;DHT22;45905;50.570;10.428;2023-02-12T04:08:08;2.70;99.90
60033;DHT22;45905;50.570;10.428;2023-02-12T04:16:59;2.60;99.90
60033;DHT22;45905;50.570;10.428;2023-02-12T04:22:48;2.60;99.90
60033;DHT22;45905;50.570;10.428;2023-02-12T04:34:21;2.60;99.90
60033;DHT22;45905;50.570;10.428;2023-02-12T04:37:28;2.50;99.90
60033;DHT22;45905;50.570;10.428;2023-02-12T04:40:05;2.50;99.90
60033;DHT22;45905;50.570;10.428;2023-02-12T04:42:47;2.50;99.90
60033;DHT22;45905;50.570;10.428;2023-02-12T04:45:20;2.50;99.90
60033;DHT22;45905;50.570;10.428;2023-02-12T04:47:51;2.60;99.90
60033;DHT22;45905;50.570;10.428;2023-02-12T04:50:18;2.50;99.90
60033;DHT22;45905;50.570;10.428;2023-02-12T04:52:45;2.50;99.90
60033;DHT22;45905;50.570;10.428;2023-02-12T04:55:13;2.50;99.90
60033;DHT22;45905;50.570;10.428;2023-02-12T04:57:41;2.60;99.90
60033;DHT22;45905;50.570;10.428;2023-02-12T05:00:13;2.60;99.90
60033;DHT22;45905;50.570;10.428;2023-02-12T05:02:41;2.60;99.90
60033;DHT22;45905;50.570;10.428;2023-02-12T05:05:08;2.60;99.90
60033;DHT22;45905;50.570;10.428;2023-02-12T05:07:35;2.60;99.90
60033;DHT22;45905;50.570;10.428;2023-02-12T05:10:02;2.70;99.90
60033;DHT22;45905;50.570;10.428;2023-02-12T05:12:30;2.60;99.90
60033;DHT22;45905;50.570;10.428;2023-02-12T05:14:57;2.60;99.90
60033;DHT22;45905;50.570;10.428;2023-02-12T05:17:24;2.60;99.90
60033;DHT22;45905;50.570;10.428;2023-02-12T05:19:51;2.60;99.90
60033;DHT22;45905;50.570;10.428;2023-02-12T05:22:18;2.60;99.90
60033;DHT22;45905;50.570;10.428;2023-02-12T05:24:46;2.80;99.90
60033;DHT22;45905;50.570;10.428;2023-02-12T05:27:13;2.70;99.90
60033;DHT22;45905;50.570;10.428;2023-02-12T05:29:40;2.70;99.90
60033;DHT22;45905;50.570;10.428;2023-02-12T05:32:08;2.60;99.90
60033;DHT22;45905;50.570;10.428;2023-02-12T05:34:35;2.70;99.90
60033;DHT22;45905;50.570;10.428;2023-02-12T05:37:02;2.60;99.90
60033;DHT22;45905;50.570;10.428;2023-02-12T05:39:30;2.70;99.90
60033;DHT22;45905;50.570;10.428;2023-02-12T05:41:57;2.50;99.90
60033;DHT22;45905;50.570;10.428;2023-02-12T05:44:24;2.60;99.90
60033;DHT22;45905;50.570;10.428;2023-02-12T05:46:51;2.60;99.90
60033;DHT22;45905;50.570;10.428;2023-02-12T05:49:18;2.70;99.90
60033;DHT22;45905;50.570;10.428;2023-02-12T05:51:45;2.70;99.90
60033;DHT22;45905;50.570;10.428;2023-02-12T05:54:12;2.60;99.90
60033;DHT22;45905;50.570;10.428;2023-02-12T05:56:45;2.60;99.90
60033;DHT22;45905;50.570;10.428;2023-02-12T05:59:18;2.60;99.90
60033;DHT22;45905;50.570;10.428;2023-02-12T06:01:49;2.60;99.90
60033;DHT22;45905;50.570;10.428;2023-02-12T06:04:21;2.60;99.90
60033;DHT22;45905;50.570;10.428;2023-02-12T06:06:52;2.60;99.90
60033;DHT22;45905;50.570;10.428;2023-02-12T06:09:22;2.60;99.90
60033;DHT22;45905;50.570;10.428;2023-02-12T06:11:49;2.60;99.90
60033;DHT22;45905;50.570;10.428;2023-02-12T06:14:18;2.60;99.90
60033;DHT22;45905;50.570;10.428;2023-02-12T06:16:50;2.60;99.90
60033;DHT22;45905;50.570;10.428;2023-02-12T06:19:18;2.60;99.90
60033;DHT22;45905;50.570;10.428;2023-02-12T06:21:46;2.60;99.90
60033;DHT22;45905;50.570;10.428;2023-02-12T06:24:15;2.60;99.90
60033;DHT22;45905;50.570;10.428;2023-02-12T06:26:43;2.60;99.90
60033;DHT22;45905;50.570;10.428;2023-02-12T06:29:10;2.60;99.90
60033;DHT22;45905;50.570;10.428;2023-02-12T06:31:39;2.60;99.90
60033;DHT22;45905;50.570;10.428;2023-02-12T06:34:08;2.60;99.90
60033;DHT22;45905;50.570;10.428;2023-02-12T06:36:39;2.60;99.90
60033;DHT22;45905;50.570;10.428;2023-02-12T06:39:08;2.90;99.90
60033;DHT22;45905;50.570;10.428;2023-02-12T06:41:36;2.60;99.90
60033;DHT22;45905;50.570;10.428;2023-02-12T06:44:04;2.70;99.90
60033;DHT22;45905;50.570;10.428;2023-02-12T06:46:32;2.60;99.90
60033;DHT22;45905;50.570;10.428;2023-02-12T06:49:00;2.60;99.90
60033;DHT22;45905;50.570;10.428;2023-02-12T06:51:28;2.60;99.90
60033;DHT22;45905;50.570;10.428;2023-02-12T06:53:56;2.70;99.90
60033;DHT22;45905;50.570;10.428;2023-02-12T06:56:25;2.60;99.90
60033;DHT22;45905;50.570;10.428;2023-02-12T06:58:55;2.60;99.90
60033;DHT22;45905;50.570;10.428;2023-02-12T07:01:25;2.70;99.90
60033;DHT22;45905;50.570;10.428;2023-02-12T07:03:59;2.90;99.90
60033;DHT22;45905;50.570;10.428;2023-02-12T07:06:30;2.70;99.90
60033;DHT22;45905;50.570;10.428;2023-02-12T07:08:59;2.70;99.90
60033;DHT22;45905;50.570;10.428;2023-02-12T07:11:28;2.90;99.90
60033;DHT22;45905;50.570;10.428;2023-02-12T07:13:58;2.70;99.90
60033;DHT22;45905;50.570;10.428;2023-02-12T07:16:25;2.70;99.90
60033;DHT22;45905;50.570;10.428;2023-02-12T07:18:53;2.70;99.90
60033;DHT22;45905;50.570;10.428;2023-02-12T07:21:21;2.80;99.90
60033;DHT22;45905;50.570;10.428;2023-02-12T07:23:50;2.70;99.90
60033;DHT22;45905;50.570;10.428;2023-02-12T07:26:19;2.80;99.90
60033;DHT22;45905;50.570;10.428;2023-02-12T07:28:48;3.00;99.90
60033;DHT22;45905;50.570;10.428;2023-02-12T07:31:18;2.80;99.90
60033;DHT22;45905;50.570;10.428;2023-02-12T07:33:47;2.70;99.90
60033;DHT22;45905;50.570;10.428;2023-02-12T07:36:17;2.80;99.90
60033;DHT22;45905;50.570;10.428;2023-02-12T07:38:46;2.70;99.90
60033;DHT22;45905;50.570;10.428;2023-02-12T07:41:19;2.80;99.90
60033;DHT22;45905;50.570;10.428;2023-02-12T07:43:56;2.80;99.90
60033;DHT22;45905;50.570;10.428;2023-02-12T07:46:31;2.80;99.90
60033;DHT22;45905;50.570;10.428;2023-02-12T07:49:03;2.80;99.90
60033;DHT22;45905;50.570;10.428;2023-02-12T07:51:33;2.80;99.90
60033;DHT22;45905;50.570;10.428;2023-02-12T07:54:02;2.80;99.90
60033;DHT22;45905;50.570;10.428;2023-02-12T07:56:32;2.90;99.90
60033;DHT22;45905;50.570;10.428;2023-02-12T07:59:04;2.90;99.90
60033;DHT22;45905;50.570;10.428;2023-02-12T08:01:37;2.80;99.90
60033;DHT22;45905;50.570;10.428;2023-02-12T08:04:08;3.00;99.90
60033;DHT22;45905;50.570;10.428;2023-02-12T08:06:46;2.90;99.90
60033;DHT22;45905;50.570;10.428;2023-02-12T08:09:18;2.90;99.90
60033;DHT22;45905;50.570;10.428;2023-02-12T08:11:47;3.10;99.90
60033;DHT22;45905;50.570;10.428;2023-02-12T08:14:17;2.90;99.90
60033;DHT22;45905;50.570;10.428;2023-02-12T08:16:47;3.10;99.90
60033;DHT22;45905;50.570;10.428;2023-02-12T08:19:15;3.00;99.90
60033;DHT22;45905;50.570;10.428;2023-02-12T08:21:51;3.00;99.90
60033;DHT22;45905;50.570;10.428;2023-02-12T08:24:20;3.00;99.90
60033;DHT22;45905;50.570;10.428;2023-02-12T08:26:50;3.00;99.90
60033;DHT22;45905;50.570;10.428;2023-02-12T08:29:20;3.00;99.90
60033;DHT22;45905;50.570;10.428;2023-02-12T08:31:55;3.10;99.90
60033;DHT22;45905;50.570;10.428;2023-02-12T08:34:32;3.00;99.90
60033;DHT22;45905;50.570;10.428;2023-02-12T08:37:00;3.10;99.90
60033;DHT22;45905;50.570;10.428;2023-02-12T08:39:30;3.10;99.90
60033;DHT22;45905;50.570;10.428;2023-02-12T08:41:58;3.20;99.90
60033;DHT22;45905;50.570;10.428;2023-02-12T08:44:27;3.30;99.90
60033;DHT22;45905;50.570;10.428;2023-02-12T08:46:55;3.20;99.90
60033;DHT22;45905;50.570;10.428;2023-02-12T08:49:27;3.20;99.90
60033;DHT22;45905;50.570;10.428;2023-02-12T08:51:58;3.20;99.90
60033;DHT22;45905;50.570;10.428;2023-02-12T08:54:29;3.30;99.90
60033;DHT22;45905;50.570;10.428;2023-02-12T08:56:59;3.30;99.90
60033;DHT22;45905;50.570;10.428;2023-02-12T08:59:27;3.30;99.90
60033;DHT22;45905;50.570;10.428;2023-02-12T09:01:55;3.40;99.90
60033;DHT22;45905;50.570;10.428;2023-02-12T09:04:25;3.50;99.90
60033;DHT22;45905;50.570;10.428;2023-02-12T09:06:54;3.50;99.90
60033;DHT22;45905;50.570;10.428;2023-02-12T09:09:22;3.50;99.90
60033;DHT22;45905;50.570;10.428;2023-02-12T09:11:49;3.60;99.90
60033;DHT22;45905;50.570;10.428;2023-02-12T09:14:17;3.50;99.90
60033;DHT22;45905;50.570;10.428;2023-02-12T09:16:50;3.60;99.90
60033;DHT22;45905;50.570;10.428;2023-02-12T09:19:19;3.60;99.90
60033;DHT22;45905;50.570;10.428;2023-02-12T09:21:50;3.70;99.90
60033;DHT22;45905;50.570;10.428;2023-02-12T09:24:22;3.70;99.90
60033;DHT22;45905;50.570;10.428;2023-02-12T09:26:54;3.80;99.90
60033;DHT22;45905;50.570;10.428;2023-02-12T09:29:21;3.80;99.90
60033;DHT22;45905;50.570;10.428;2023-02-12T09:31:49;3.80;99.90
60033;DHT22;45905;50.570;10.428;2023-02-12T09:34:16;3.80;99.90
60033;DHT22;45905;50.570;10.428;2023-02-12T09:36:43;3.90;99.90
60033;DHT22;45905;50.570;10.428;2023-02-12T09:39:10;3.90;99.90
60033;DHT22;45905;50.570;10.428;2023-02-12T09:41:43;3.90;99.90
60033;DHT22;45905;50.570;10.428;2023-02-12T09:47:24;4.00;99.90
60033;DHT22;45905;50.570;10.428;2023-02-12T09:53:05;4.20;99.90
60033;DHT22;45905;50.570;10.428;2023-02-12T09:55:35;4.10;99.90
60033;DHT22;45905;50.570;10.428;2023-02-12T09:58:13;4.20;99.90
60033;DHT22;45905;50.570;10.428;2023-02-12T10:00:55;4.20;99.90
60033;DHT22;45905;50.570;10.428;2023-02-12T10:03:23;4.30;99.90
60033;DHT22;45905;50.570;10.428;2023-02-12T10:06:00;4.30;99.90
60033;DHT22;45905;50.570;10.428;2023-02-12T10:29:24;4.50;99.90
60033;DHT22;45905;50.570;10.428;2023-02-12T10:32:03;4.60;99.90
60033;DHT22;45905;50.570;10.428;2023-02-12T10:34:35;4.60;99.90
60033;DHT22;45905;50.570;10.428;2023-02-12T10:37:25;4.70;99.90
60033;DHT22;45905;50.570;10.428;2023-02-12T10:40:00;4.70;99.90
60033;DHT22;45905;50.570;10.428;2023-02-12T10:42:42;4.70;99.90
60033;DHT22;45905;50.570;10.428;2023-02-12T10:45:15;4.80;99.90
60033;DHT22;45905;50.570;10.428;2023-02-12T10:48:01;4.80;99.90
60033;DHT22;45905;50.570;10.428;2023-02-12T10:53:31;5.00;99.90
60033;DHT22;45905;50.570;10.428;2023-02-12T11:01:20;5.20;99.90
60033;DHT22;45905;50.570;10.428;2023-02-12T11:03:53;5.20;99.90
60033;DHT22;45905;50.570;10.428;2023-02-12T11:06:25;5.30;99.90
60033;DHT22;45905;50.570;10.428;2023-02-12T11:08:55;5.40;99.90
60033;DHT22;45905;50.570;10.428;2023-02-12T11:11:30;5.50;99.90
60033;DHT22;45905;50.570;10.428;2023-02-12T11:14:06;5.50;99.90
60033;DHT22;45905;50.570;10.428;2023-02-12T11:16:56;5.60;99.90
60033;DHT22;45905;50.570;10.428;2023-02-12T11:19:28;5.70;99.90
60033;DHT22;45905;50.570;10.428;2023-02-12T11:22:07;5.70;99.90
60033;DHT22;45905;50.570;10.428;2023-02-12T11:24:40;5.80;99.90
60033;DHT22;45905;50.570;10.428;2023-02-12T11:27:25;5.80;99.90
60033;DHT22;45905;50.570;10.428;2023-02-12T11:30:24;5.70;99.90
60033;DHT22;45905;50.570;10.428;2023-02-12T11:32:51;6.00;99.90
60033;DHT22;45905;50.570;10.428;2023-02-12T11:35:24;6.00;99.90
60033;DHT22;45905;50.570;10.428;2023-02-12T11:37:56;6.10;99.90
60033;DHT22;45905;50.570;10.428;2023-02-12T11:40:32;6.20;99.90
60033;DHT22;45905;50.570;10.428;2023-02-12T11:43:03;6.20;99.90
60033;DHT22;45905;50.570;10.428;2023-02-12T11:48:19;6.30;99.90
60033;DHT22;45905;50.570;10.428;2023-02-12T11:50:57;6.30;99.90
60033;DHT22;45905;50.570;10.428;2023-02-12T11:53:33;6.30;99.90
60033;DHT22;45905;50.570;10.428;2023-02-12T11:56:13;6.30;99.90
60033;DHT22;45905;50.570;10.428;2023-02-12T11:58:41;6.40;99.90
60033;DHT22;45905;50.570;10.428;2023-02-12T12:01:32;6.40;99.90
60033;DHT22;45905;50.570;10.428;2023-02-12T12:04:12;6.50;99.90
60033;DHT22;45905;50.570;10.428;2023-02-12T12:06:45;6.50;99.90
60033;DHT22;45905;50.570;10.428;2023-02-12T12:09:31;6.50;99.90
60033;DHT22;45905;50.570;10.428;2023-02-12T12:14:49;6.60;99.90
60033;DHT22;45905;50.570;10.428;2023-02-12T12:17:52;6.70;99.90
60033;DHT22;45905;50.570;10.428;2023-02-12T12:20:55;6.70;99.90
60033;DHT22;45905;50.570;10.428;2023-02-12T12:23:41;6.80;99.90
60033;DHT22;45905;50.570;10.428;2023-02-12T12:26:25;6.80;99.90
60033;DHT22;45905;50.570;10.428;2023-02-12T12:29:12;6.80;99.90
60033;DHT22;45905;50.570;10.428;2023-02-12T12:31:51;6.80;99.90
60033;DHT22;45905;50.570;10.428;2023-02-12T12:34:25;6.90;99.90
60033;DHT22;45905;50.570;10.428;2023-02-12T12:43:11;6.90;99.90
60033;DHT22;45905;50.570;10.428;2023-02-12T12:46:03;7.00;99.90
60033;DHT22;45905;50.570;10.428;2023-02-12T12:49:03;6.90;99.90
60033;DHT22;45905;50.570;10.428;2023-02-12T13:01:53;7.00;99.90
60033;DHT22;45905;50.570;10.428;2023-02-12T13:08:02;7.00;99.90
60033;DHT22;45905;50.570;10.428;2023-02-12T13:13:45;7.00;99.90
60033;DHT22;45905;50.570;10.428;2023-02-12T13:16:25;7.00;99.90
60033;DHT22;45905;50.570;10.428;2023-02-12T13:27:45;7.00;99.90
60033;DHT22;45905;50.570;10.428;2023-02-12T13:30:21;7.00;99.90
60033;DHT22;45905;50.570;10.428;2023-02-12T13:35:42;7.00;99.90
60033;DHT22;45905;50.570;10.428;2023-02-12T13:38:20;7.00;99.90
60033;DHT22;45905;50.570;10.428;2023-02-12T13:40:56;7.00;99.90
60033;DHT22;45905;50.570;10.428;2023-02-12T13:43:32;7.00;99.90
60033;DHT22;45905;50.570;10.428;2023-02-12T13:49:21;7.00;99.90
60033;DHT22;45905;50.570;10.428;2023-02-12T13:58:37;6.90;99.90
60033;DHT22;45905;50.570;10.428;2023-02-12T14:01:08;6.90;99.90
60033;DHT22;45905;50.570;10.428;2023-02-12T14:03:38;6.90;99.90
60033;DHT22;45905;50.570;10.428;2023-02-12T14:06:19;6.90;99.90
60033;DHT22;45905;50.570;10.428;2023-02-12T14:08:50;6.90;99.90
60033;DHT22;45905;50.570;10.428;2023-02-12T14:11:22;6.90;99.90
60033;DHT22;45905;50.570;10.428;2023-02-12T14:13:56;6.90;99.90
60033;DHT22;45905;50.570;10.428;2023-02-12T14:19:35;6.90;99.90
60033;DHT22;45905;50.570;10.428;2023-02-12T14:33:51;6.80;99.90
60033;DHT22;45905;50.570;10.428;2023-02-12T14:36:40;6.80;99.90
60033;DHT22;45905;50.570;10.428;2023-02-12T14:45:25;6.80;99.90
60033;DHT22;45905;50.570;10.428;2023-02-12T14:47:54;6.80;99.90
60033;DHT22;45905;50.570;10.428;2023-02-12T14:50:29;6.80;99.90
60033;DHT22;45905;50.570;10.428;2023-02-12T14:53:11;6.80;99.90
60033;DHT22;45905;50.570;10.428;2023-02-12T14:55:48;6.80;99.90
60033;DHT22;45905;50.570;10.428;2023-02-12T14:58:19;6.90;99.90
60033;DHT22;45905;50.570;10.428;2023-02-12T15:00:52;6.70;99.90
60033;DHT22;45905;50.570;10.428;2023-02-12T15:03:28;6.70;99.90
60033;DHT22;45905;50.570;10.428;2023-02-12T15:06:06;6.70;99.90
60033;DHT22;45905;50.570;10.428;2023-02-12T15:09:00;6.70;99.90
60033;DHT22;45905;50.570;10.428;2023-02-12T15:11:42;6.70;99.90
60033;DHT22;45905;50.570;10.428;2023-02-12T15:14:22;6.60;99.90
60033;DHT22;45905;50.570;10.428;2023-02-12T15:17:31;6.60;99.90
60033;DHT22;45905;50.570;10.428;2023-02-12T15:20:22;6.70;99.90
60033;DHT22;45905;50.570;10.428;2023-02-12T15:22:57;6.70;99.90
60033;DHT22;45905;50.570;10.428;2023-02-12T15:25:26;6.60;99.90
60033;DHT22;45905;50.570;10.428;2023-02-12T15:28:11;6.70;99.90
60033;DHT22;45905;50.570;10.428;2023-02-12T15:30:55;6.60;99.90
60033;DHT22;45905;50.570;10.428;2023-02-12T15:33:33;6.50;99.90
60033;DHT22;45905;50.570;10.428;2023-02-12T15:36:02;6.60;99.90
60033;DHT22;45905;50.570;10.428;2023-02-12T15:38:33;6.60;99.90
60033;DHT22;45905;50.570;10.428;2023-02-12T15:41:03;6.60;99.90
60033;DHT22;45905;50.570;10.428;2023-02-12T15:43:33;6.60;99.90
60033;DHT22;45905;50.570;10.428;2023-02-12T15:46:06;6.60;99.90
60033;DHT22;45905;50.570;10.428;2023-02-12T15:48:44;6.60;99.90
60033;DHT22;45905;50.570;10.428;2023-02-12T15:51:34;6.60;99.90
60033;DHT22;45905;50.570;10.428;2023-02-12T15:54:17;6.60;99.90
60033;DHT22;45905;50.570;10.428;2023-02-12T15:56:46;6.60;99.90
60033;DHT22;45905;50.570;10.428;2023-02-12T15:59:24;6.50;99.90
60033;DHT22;45905;50.570;10.428;2023-02-12T16:01:59;6.50;99.90
60033;DHT22;45905;50.570;10.428;2023-02-12T16:04:33;6.50;99.90
60033;DHT22;45905;50.570;10.428;2023-02-12T16:07:09;6.50;99.90
60033;DHT22;45905;50.570;10.428;2023-02-12T16:09:39;6.40;99.90
60033;DHT22;45905;50.570;10.428;2023-02-12T16:12:12;6.40;99.90
60033;DHT22;45905;50.570;10.428;2023-02-12T16:14:48;6.40;99.90
60033;DHT22;45905;50.570;10.428;2023-02-12T16:19:55;6.40;99.90
60033;DHT22;45905;50.570;10.428;2023-02-12T16:22:35;6.40;99.90
60033;DHT22;45905;50.570;10.428;2023-02-12T16:27:58;6.40;99.90
60033;DHT22;45905;50.570;10.428;2023-02-12T16:30:35;6.40;99.90
60033;DHT22;45905;50.570;10.428;2023-02-12T16:39:04;6.30;99.90
60033;DHT22;45905;50.570;10.428;2023-02-12T16:41:50;6.30;99.90
60033;DHT22;45905;50.570;10.428;2023-02-12T16:44:25;6.30;99.90
60033;DHT22;45905;50.570;10.428;2023-02-12T16:46:56;6.30;99.90
60033;DHT22;45905;50.570;10.428;2023-02-12T16:49:26;6.30;99.90
60033;DHT22;45905;50.570;10.428;2023-02-12T16:52:17;6.20;99.90
60033;DHT22;45905;50.570;10.428;2023-02-12T16:54:48;6.20;99.90
60033;DHT22;45905;50.570;10.428;2023-02-12T16:57:15;6.20;99.90
60033;DHT22;45905;50.570;10.428;2023-02-12T16:59:42;6.20;99.90
60033;DHT22;45905;50.570;10.428;2023-02-12T17:02:12;6.20;99.90
60033;DHT22;45905;50.570;10.428;2023-02-12T17:04:40;6.20;99.90
60033;DHT22;45905;50.570;10.428;2023-02-12T17:07:23;6.20;99.90
60033;DHT22;45905;50.570;10.428;2023-02-12T17:09:54;6.10;99.90
60033;DHT22;45905;50.570;10.428;2023-02-12T17:12:22;6.10;99.90
60033;DHT22;45905;50.570;10.428;2023-02-12T17:14:49;6.10;99.90
60033;DHT22;45905;50.570;10.428;2023-02-12T17:17:17;6.10;99.90
60033;DHT22;45905;50.570;10.428;2023-02-12T17:19:44;6.10;99.90
60033;DHT22;45905;50.570;10.428;2023-02-12T17:22:21;6.10;99.90
60033;DHT22;45905;50.570;10.428;2023-02-12T17:24:52;6.00;99.90
60033;DHT22;45905;50.570;10.428;2023-02-12T17:27:20;6.00;99.90
60033;DHT22;45905;50.570;10.428;2023-02-12T17:29:47;6.00;99.90
60033;DHT22;45905;50.570;10.428;2023-02-12T17:32:14;6.00;99.90
60033;DHT22;45905;50.570;10.428;2023-02-12T17:34:42;6.00;99.90
60033;DHT22;45905;50.570;10.428;2023-02-12T17:37:15;6.00;99.90
60033;DHT22;45905;50.570;10.428;2023-02-12T17:39:43;6.00;99.90
60033;DHT22;45905;50.570;10.428;2023-02-12T17:42:10;5.90;99.90
60033;DHT22;45905;50.570;10.428;2023-02-12T17:44:38;5.90;99.90
60033;DHT22;45905;50.570;10.428;2023-02-12T17:47:05;5.90;99.90
60033;DHT22;45905;50.570;10.428;2023-02-12T17:49:33;5.90;99.90
60033;DHT22;45905;50.570;10.428;2023-02-12T17:52:01;5.90;99.90
60033;DHT22;45905;50.570;10.428;2023-02-12T17:54:31;5.80;99.90
60033;DHT22;45905;50.570;10.428;2023-02-12T17:56:58;5.80;99.90
60033;DHT22;45905;50.570;10.428;2023-02-12T17:59:25;5.80;99.90
60033;DHT22;45905;50.570;10.428;2023-02-12T18:01:52;5.80;99.90
60033;DHT22;45905;50.570;10.428;2023-02-12T18:04:19;5.80;99.90
60033;DHT22;45905;50.570;10.428;2023-02-12T18:06:47;5.70;99.90
60033;DHT22;45905;50.570;10.428;2023-02-12T18:09:14;5.80;99.90
60033;DHT22;45905;50.570;10.428;2023-02-12T18:11:41;5.80;99.90
60033;DHT22;45905;50.570;10.428;2023-02-12T18:14:10;5.70;99.90
60033;DHT22;45905;50.570;10.428;2023-02-12T18:16:37;5.70;99.90
60033;DHT22;45905;50.570;10.428;2023-02-12T18:19:04;5.70;99.90
60033;DHT22;45905;50.570;10.428;2023-02-12T18:21:32;5.70;99.90
60033;DHT22;45905;50.570;10.428;2023-02-12T18:24:02;5.70;99.90
60033;DHT22;45905;50.570;10.428;2023-02-12T18:26:30;5.70;99.90
60033;DHT22;45905;50.570;10.428;2023-02-12T18:28:59;5.60;99.90
60033;DHT22;45905;50.570;10.428;2023-02-12T18:31:27;5.60;99.90
60033;DHT22;45905;50.570;10.428;2023-02-12T18:33:54;5.60;99.90
60033;DHT22;45905;50.570;10.428;2023-02-12T18:36:22;5.60;99.90
60033;DHT22;45905;50.570;10.428;2023-02-12T18:38:50;5.60;99.90
60033;DHT22;45905;50.570;10.428;2023-02-12T18:41:23;5.60;99.90
60033;DHT22;45905;50.570;10.428;2023-02-12T18:43:52;5.60;99.90
60033;DHT22;45905;50.570;10.428;2023-02-12T18:46:23;5.50;99.90
60033;DHT22;45905;50.570;10.428;2023-02-12T18:48:53;5.50;99.90
60033;DHT22;45905;50.570;10.428;2023-02-12T18:51:26;5.50;99.90